Date,TemperatureHighF,TemperatureAvgF,TemperatureLowF,DewpointHighF,DewpointAvgF,DewpointLowF,HumidityHigh,HumidityAvg,HumidityLow,PressureMaxIn,PressureMinIn,WindSpeedMaxMPH,WindSpeedAvgMPH,GustSpeedMaxMPH,PrecipitationSumIn
2014-2-1,47.4,41.3,37.7,37.8,34.7,31.1,90,78,61,30.22,30.02,5,1,12,0.01
2014-2-2,44.2,38.4,35.1,34.7,31.9,29.0,83,77,67,30.02,29.95,3,0,8,0.00
2014-2-3,44.9,37.5,33.5,33.8,30.9,28.9,89,78,57,30.17,30.02,4,1,7,0.08
2014-2-4,35.1,31.3,27.9,32.2,26.5,17.3,91,82,64,30.33,30.17,6,2,11,0.02
2014-2-5,31.0,25.3,19.9,17.3,8.9,2.4,66,50,38,30.38,30.20,10,5,15,0.00
2014-2-6,20.8,19.4,17.9,14.1,8.2,2.2,82,64,45,30.20,29.75,7,3,14,0.00
2014-2-7,25.6,21.5,18.2,22.8,17.6,13.6,89,85,82,29.94,29.67,4,1,14,0.00
2014-2-8,28.7,26.3,24.3,26.9,23.8,21.4,93,90,89,30.00,29.75,7,2,12,0.00
2014-2-9,33.0,31.3,28.6,31.7,30.0,26.8,96,95,93,30.14,29.99,1,0,4,0.33
2014-2-10,44.4,39.2,31.7,43.4,38.2,30.7,97,96,95,30.23,30.13,13,6,20,0.63
2014-2-11,46.8,44.3,41.6,44.6,42.6,40.5,96,94,89,30.21,29.80,17,9,21,0.88
2014-2-12,51.9,49.7,45.8,51.1,48.7,44.2,97,96,94,29.97,29.77,16,7,23,0.81
2014-2-13,52.3,49.0,44.3,49.9,43.2,40.6,96,81,65,30.18,29.80,8,3,20,0.35
2014-2-14,52.0,48.9,45.7,50.0,45.6,40.5,97,89,79,30.01,29.76,12,6,22,0.85
2014-2-15,52.7,45.4,40.2,51.4,42.5,35.8,97,90,78,29.94,29.42,15,5,24,0.68
2014-2-16,48.1,43.2,38.0,41.1,37.5,34.4,89,81,67,30.11,29.83,20,11,27,0.30
2014-2-17,52.9,45.9,42.0,42.0,38.9,37.3,90,77,59,30.06,29.83,21,10,33,0.11
2014-2-18,48.7,44.5,38.2,46.2,40.8,33.4,92,87,79,30.07,29.79,17,8,23,0.06
2014-2-19,45.3,40.6,36.8,39.2,35.9,32.7,89,83,76,30.28,30.06,12,6,19,0.05
2014-2-20,45.4,43.3,40.7,43.8,41.0,37.2,95,92,86,30.31,30.24,15,6,27,0.05
2014-2-21,52.0,44.9,39.2,42.7,38.7,33.2,94,80,58,30.33,30.24,3,0,24,0.05
2014-2-22,48.9,40.9,34.7,35.1,31.8,29.1,83,70,55,30.25,30.07,4,1,8,0.04
2014-2-23,47.2,41.6,33.7,42.9,35.6,28.6,92,79,67,30.09,29.98,12,3,15,0.03
2014-2-24,55.2,47.9,42.6,52.4,46.1,41.5,96,94,87,30.04,30.00,7,3,13,0.04
2014-2-25,51.3,44.2,38.7,41.3,35.1,29.3,96,71,58,30.04,29.95,8,5,16,0.02
2014-2-26,49.2,42.8,38.0,35.3,31.1,28.9,70,63,54,29.96,29.66,8,3,16,0.02
2014-2-27,45.7,42.2,39.1,43.8,37.8,29.8,96,85,65,29.77,29.63,4,1,16,0.01
2014-2-28,57.1,47.3,40.3,45.3,40.6,35.8,97,79,60,29.73,29.42,8,4,13,0.01